createdAt,value
2022-12-23T00:01:18.493Z,99600.69
2022-12-23T00:07:20.470Z,99544.00
2022-12-23T00:13:43.377Z,99552.72
2022-12-23T00:19:45.933Z,99550.44
2022-12-23T00:25:48.402Z,99594.56
2022-12-23T00:31:50.358Z,99487.03
2022-12-23T00:37:52.310Z,99477.66
2022-12-23T00:43:54.791Z,99587.38
2022-12-23T00:49:57.257Z,99576.50
2022-12-23T00:55:59.719Z,99582.03
2022-12-23T01:02:20.405Z,99587.13
2022-12-23T01:08:22.711Z,99514.78
2022-12-23T01:14:26.210Z,99580.94
2022-12-23T01:20:27.930Z,99544.72
2022-12-23T01:26:33.149Z,99521.53
2022-12-23T01:32:37.608Z,99555.31
2022-12-23T01:38:40.078Z,99553.09
2022-12-23T01:45:04.628Z,99549.59
2022-12-23T01:51:26.831Z,99555.75
2022-12-23T01:57:30.041Z,99551.38
2022-12-23T02:03:46.127Z,99534.31
2022-12-23T02:09:48.579Z,99508.22
2022-12-23T02:16:19.212Z,99553.34
2022-12-23T02:22:44.715Z,99545.19
2022-12-23T02:29:20.353Z,99542.06
2022-12-23T02:35:30.797Z,99560.84
2022-12-23T02:41:32.513Z,99559.53
2022-12-23T02:48:03.479Z,99551.28
2022-12-23T02:54:11.289Z,99556.56
2022-12-23T03:00:18.783Z,99495.59
2022-12-23T03:06:31.273Z,99559.22
2022-12-23T03:13:01.844Z,99570.34
2022-12-23T03:19:42.457Z,99564.41
2022-12-23T03:26:03.990Z,99533.63
2022-12-23T03:32:08.479Z,99515.72
2022-12-23T03:38:14.969Z,99464.97
2022-12-23T03:44:22.452Z,99473.31
2022-12-23T03:50:26.929Z,99567.66
2022-12-23T03:56:39.457Z,99549.09
2022-12-23T04:03:00.145Z,99573.66
2022-12-23T04:09:03.467Z,99582.78
2022-12-23T04:15:12.855Z,99526.50
2022-12-23T04:21:15.212Z,99580.53
2022-12-23T04:27:31.948Z,99583.03
2022-12-23T04:33:34.398Z,99582.53
2022-12-23T04:39:37.861Z,99571.78
2022-12-23T04:45:40.345Z,99579.03
2022-12-23T04:51:42.770Z,99573.94
2022-12-23T04:57:47.400Z,99578.31
2022-12-23T05:03:49.729Z,99591.06
2022-12-23T05:09:52.155Z,99549.22
2022-12-23T05:15:58.103Z,99538.56
2022-12-23T05:22:01.058Z,99530.94
2022-12-23T05:28:03.464Z,99608.13
2022-12-23T05:34:08.437Z,99586.75
2022-12-23T05:40:10.581Z,99581.22
2022-12-23T05:46:13.040Z,99434.53
2022-12-23T05:52:16.419Z,99587.25
2022-12-23T05:58:18.899Z,99533.38
2022-12-23T06:04:21.419Z,99625.47
2022-12-23T06:10:23.807Z,99626.84
2022-12-23T06:16:28.966Z,99620.50
2022-12-23T06:22:31.736Z,99629.03
2022-12-23T06:28:34.207Z,99637.31
2022-12-23T06:34:36.734Z,99639.53
2022-12-23T06:40:39.149Z,99636.34
2022-12-23T06:46:43.595Z,99572.00
2022-12-23T06:52:48.264Z,99629.78
2022-12-23T06:58:50.550Z,99599.91
2022-12-23T07:04:53.017Z,99542.75
2022-12-23T07:11:02.504Z,99644.56
2022-12-23T07:17:04.988Z,99642.06
2022-12-23T07:23:07.413Z,99599.25
2022-12-23T07:29:09.902Z,99637.56
2022-12-23T07:35:12.391Z,99619.38
2022-12-23T07:41:14.772Z,99639.97
2022-12-23T07:47:17.228Z,99611.50
2022-12-23T07:53:18.974Z,99586.78
2022-12-23T07:59:21.162Z,99631.31
2022-12-23T08:05:23.764Z,99647.88
2022-12-23T08:11:26.195Z,99651.47
2022-12-23T08:17:31.555Z,99625.69
2022-12-23T08:23:34.029Z,99546.22
2022-12-23T08:29:42.282Z,99647.19
2022-12-23T08:35:44.033Z,99609.03
2022-12-23T08:41:49.392Z,99644.38
2022-12-23T08:47:51.199Z,99620.91
2022-12-23T08:54:00.600Z,99621.19
2022-12-23T09:00:03.876Z,99627.06
2022-12-23T09:06:15.383Z,99624.38
2022-12-23T09:12:17.826Z,99583.72
2022-12-23T09:18:20.283Z,99564.59
2022-12-23T09:24:22.536Z,99606.25
2022-12-23T09:30:25.207Z,99578.00
2022-12-23T09:36:27.668Z,99500.19
2022-12-23T09:42:51.217Z,99612.09
2022-12-23T09:49:09.755Z,99600.47
2022-12-23T09:55:14.266Z,99517.69
2022-12-23T10:01:41.486Z,99602.41
2022-12-23T10:07:52.498Z,99575.09
2022-12-23T10:14:03.421Z,99537.28
2022-12-23T10:20:16.314Z,99545.78
2022-12-23T10:26:26.837Z,99566.84
2022-12-23T10:32:38.383Z,99577.13
2022-12-23T10:38:59.831Z,99485.84
2022-12-23T10:45:15.350Z,99549.09
2022-12-23T10:51:35.969Z,99483.59
2022-12-23T10:57:41.385Z,99529.16
2022-12-23T11:04:00.284Z,99542.78
2022-12-23T11:10:24.074Z,99529.75
2022-12-23T11:16:30.517Z,99418.63
2022-12-23T11:22:35.436Z,99543.41
2022-12-23T11:28:53.932Z,99528.88
2022-12-23T11:34:56.537Z,99529.69
2022-12-23T11:41:02.883Z,99527.66
2022-12-23T11:47:23.435Z,99523.88
2022-12-23T11:53:26.976Z,99516.44
2022-12-23T11:59:34.395Z,99502.13
2022-12-23T12:05:42.349Z,99510.78
2022-12-23T12:12:01.138Z,99505.56
2022-12-23T12:18:12.837Z,99472.06
2022-12-23T12:24:31.004Z,99492.75
2022-12-23T12:30:45.965Z,99489.38
2022-12-23T12:37:03.405Z,99442.63
2022-12-23T12:43:27.023Z,99517.50
2022-12-23T12:49:46.556Z,99527.72
2022-12-23T12:56:17.116Z,99516.69
2022-12-23T13:02:46.974Z,99518.97
2022-12-23T13:09:06.245Z,99524.56
2022-12-23T13:15:25.136Z,99504.75
2022-12-23T13:21:45.290Z,99450.97
2022-12-23T13:27:59.796Z,99508.25
2022-12-23T13:34:30.977Z,99529.72
2022-12-23T13:40:41.455Z,99528.13
2022-12-23T13:46:58.379Z,99470.59
2022-12-23T13:53:21.967Z,99535.75
2022-12-23T13:59:39.439Z,99535.88
2022-12-23T14:05:47.924Z,99525.56
2022-12-23T14:11:56.243Z,99483.47
2022-12-23T14:18:25.059Z,99545.38
2022-12-23T14:24:58.562Z,99530.03
2022-12-23T14:31:04.214Z,99479.09
2022-12-23T14:37:21.649Z,99537.13
2022-12-23T14:43:24.080Z,99560.75
2022-12-23T14:49:43.123Z,99549.09
2022-12-23T14:55:47.057Z,99525.44
2022-12-23T15:01:53.581Z,99554.56
2022-12-23T15:07:58.029Z,99508.22
2022-12-23T15:14:05.465Z,99573.81
2022-12-23T15:20:10.985Z,99585.03
2022-12-23T15:26:13.396Z,99585.72
2022-12-23T15:32:16.885Z,99590.78
2022-12-23T15:38:22.302Z,99587.69
2022-12-23T15:44:27.754Z,99581.75
2022-12-23T15:50:31.230Z,99592.22
2022-12-23T15:56:41.446Z,99580.56
2022-12-23T16:03:02.793Z,99589.34
2022-12-23T16:09:14.767Z,99489.91
2022-12-23T16:15:24.257Z,99601.41
2022-12-23T16:21:32.487Z,99598.34
2022-12-23T16:27:44.199Z,99481.19
2022-12-23T16:33:52.685Z,99597.72
2022-12-23T16:39:58.266Z,99576.47
2022-12-23T16:46:06.762Z,99594.50
2022-12-23T16:52:18.118Z,99583.69
2022-12-23T16:58:20.562Z,99532.13
2022-12-23T17:04:24.173Z,99491.47
2022-12-23T17:10:26.871Z,99580.06
2022-12-23T17:16:29.020Z,99577.88
2022-12-23T17:22:34.418Z,99561.13
2022-12-23T17:28:36.855Z,99570.34
2022-12-23T17:34:39.325Z,99476.75
2022-12-23T17:40:42.810Z,99471.38
2022-12-23T17:46:47.229Z,99540.75
2022-12-23T17:52:49.690Z,99560.00
2022-12-23T17:58:52.183Z,99543.47
2022-12-23T18:04:54.609Z,99549.00
2022-12-23T18:10:59.068Z,99426.69
2022-12-23T18:17:01.631Z,99537.41
2022-12-23T18:23:04.057Z,99542.16
2022-12-23T18:29:07.452Z,99523.19
2022-12-23T18:35:26.988Z,99511.31
2022-12-23T18:41:29.438Z,99533.97
2022-12-23T18:47:31.888Z,99540.34
2022-12-23T18:53:34.369Z,99532.13
2022-12-23T18:59:38.814Z,99469.28
2022-12-23T19:05:41.313Z,99434.09
2022-12-23T19:11:43.617Z,99447.81
2022-12-23T19:17:46.218Z,99507.47
2022-12-23T19:23:48.665Z,99535.81
2022-12-23T19:29:52.903Z,99530.97
2022-12-23T19:35:55.730Z,99534.94
2022-12-23T19:41:58.106Z,99424.50
2022-12-23T19:48:00.595Z,99539.38
2022-12-23T19:54:05.589Z,99491.03
2022-12-23T20:00:08.391Z,99492.38
2022-12-23T20:06:29.035Z,99487.34
2022-12-23T20:12:39.448Z,99459.44
2022-12-23T20:18:42.030Z,99411.44
2022-12-23T20:24:44.449Z,99497.53
2022-12-23T20:30:49.999Z,99492.97
2022-12-23T20:36:52.925Z,99340.25
2022-12-23T20:42:54.918Z,99511.09
2022-12-23T20:48:57.373Z,99508.41
2022-12-23T20:55:01.933Z,99475.25
2022-12-23T21:01:12.406Z,99512.56
2022-12-23T21:07:14.805Z,99507.97
2022-12-23T21:13:17.245Z,99496.84
2022-12-23T21:19:24.738Z,99502.59
2022-12-23T21:25:27.171Z,99500.34
2022-12-23T21:31:31.752Z,99495.06
2022-12-23T21:37:37.120Z,99453.06
2022-12-23T21:43:39.618Z,99493.97
2022-12-23T21:49:43.055Z,99477.44
2022-12-23T21:55:45.508Z,99459.63
2022-12-23T22:01:48.000Z,99466.84
2022-12-23T22:07:50.412Z,99501.19
2022-12-23T22:13:52.784Z,99405.44
2022-12-23T22:19:55.365Z,99508.81
2022-12-23T22:25:57.829Z,99508.88
2022-12-23T22:32:00.327Z,99341.28
2022-12-23T22:38:02.258Z,99497.88
2022-12-23T22:44:07.186Z,99440.94
2022-12-23T22:50:09.306Z,99493.13
2022-12-23T22:56:14.122Z,99395.56
2022-12-23T23:02:16.639Z,99417.06
2022-12-23T23:08:19.075Z,99432.00
2022-12-23T23:14:21.553Z,99469.56
2022-12-23T23:20:23.986Z,99482.53
2022-12-23T23:26:28.552Z,99395.28
2022-12-23T23:32:31.075Z,99477.41
2022-12-23T23:38:33.432Z,99416.09
2022-12-23T23:44:36.969Z,99454.69
2022-12-23T23:50:40.396Z,99479.81
2022-12-23T23:56:42.864Z,99460.38
